Time;durP1;ratioP1;P1;durP2;ratioP2;P2;SDS_P1;SDS_P2;PMS_P1;PMS_P2;Temp;Humidity;BMP_temperature;BMP_pressure;BME280_temperature;BME280_humidity;BME280_pressure;Samples;Min_cycle;Max_cycle;Signal;HPM_P1;HPM_P2
2023/01/28 00:00:22;;;;;;;7.35;4.40;;;;;;;;;;4966862;28;20055;-75
2023/01/28 00:02:51;;;;;;;6.72;4.60;;;;;;;;;;4965418;28;20059;-76
2023/01/28 00:05:18;;;;;;;5.05;3.63;;;;;;;;;;4968108;28;20051;-76
2023/01/28 00:07:45;;;;;;;4.95;4.20;;;;;;;;;;4971533;28;20054;-76
2023/01/28 00:10:13;;;;;;;5.50;3.80;;;;;;;;;;4966164;28;20158;-75
2023/01/28 00:12:40;;;;;;;4.43;3.70;;;;;;;;;;4968629;28;20567;-76
2023/01/28 00:15:08;;;;;;;5.63;3.58;;;;;;;;;;4968027;28;20050;-77
2023/01/28 00:17:36;;;;;;;8.30;4.28;;;;;;;;;;4965580;28;20150;-75
2023/01/28 00:20:04;;;;;;;6.43;4.32;;;;;;;;;;4970625;28;20514;-76
2023/01/28 00:22:32;;;;;;;7.20;4.18;;;;;;;;;;4969157;28;20827;-76
2023/01/28 00:24:59;;;;;;;8.18;5.45;;;;;;;;;;4971016;28;20512;-76
2023/01/28 00:27:27;;;;;;;8.45;4.70;;;;;;;;;;4972233;28;20406;-76
2023/01/28 00:29:54;;;;;;;4.90;3.97;;;;;;;;;;4970280;28;20050;-72
2023/01/28 00:32:21;;;;;;;8.00;4.35;;;;;;;;;;4956334;28;20109;-74
2023/01/28 00:34:49;;;;;;;5.15;3.92;;;;;;;;;;4958426;28;20057;-76
2023/01/28 00:37:17;;;;;;;7.50;4.53;;;;;;;;;;4955354;28;20054;-76
2023/01/28 00:39:44;;;;;;;6.20;4.53;;;;;;;;;;4971298;28;20490;-76
2023/01/28 00:42:12;;;;;;;6.75;4.10;;;;;;;;;;4960787;28;20059;-76
2023/01/28 00:44:39;;;;;;;6.90;4.85;;;;;;;;;;4949333;28;20058;-76
2023/01/28 00:47:06;;;;;;;5.80;4.32;;;;;;;;;;4962505;28;20062;-76
2023/01/28 00:49:33;;;;;;;4.55;3.40;;;;;;;;;;4946800;28;20074;-76
2023/01/28 00:52:01;;;;;;;5.25;4.13;;;;;;;;;;4963065;28;20414;-76
2023/01/28 00:54:31;;;;;;;7.35;4.72;;;;;;;;;;4966946;28;20051;-76
2023/01/28 00:56:58;;;;;;;5.93;3.90;;;;;;;;;;4963064;28;20130;-76
2023/01/28 00:59:26;;;;;;;5.93;3.88;;;;;;;;;;4962676;28;20047;-76
2023/01/28 01:01:53;;;;;;;9.45;4.00;;;;;;;;;;4949238;28;20063;-77
2023/01/28 01:04:25;;;;;;;7.22;4.78;;;;;;;;;;4964340;28;20077;-76
2023/01/28 01:06:53;;;;;;;5.95;4.07;;;;;;;;;;4962115;28;20562;-76
2023/01/28 01:09:21;;;;;;;4.40;3.90;;;;;;;;;;4966166;28;20047;-76
2023/01/28 01:11:49;;;;;;;5.60;4.20;;;;;;;;;;4945792;28;20521;-76
2023/01/28 01:14:17;;;;;;;6.07;4.32;;;;;;;;;;4951561;28;20051;-75
2023/01/28 01:16:46;;;;;;;6.10;4.45;;;;;;;;;;4966833;28;20423;-76
2023/01/28 01:19:13;;;;;;;6.20;4.38;;;;;;;;;;4957168;28;20393;-74
2023/01/28 01:21:40;;;;;;;5.97;4.72;;;;;;;;;;4957389;28;20062;-76
2023/01/28 01:24:08;;;;;;;5.93;4.57;;;;;;;;;;4956064;28;20050;-74
2023/01/28 01:26:35;;;;;;;5.55;4.30;;;;;;;;;;4946620;28;20546;-76
2023/01/28 01:29:04;;;;;;;6.03;4.82;;;;;;;;;;4968566;28;20051;-75
2023/01/28 01:31:31;;;;;;;5.70;4.90;;;;;;;;;;4965224;28;20054;-74
2023/01/28 01:33:58;;;;;;;5.20;4.35;;;;;;;;;;4968270;28;20129;-76
2023/01/28 01:36:26;;;;;;;5.50;4.57;;;;;;;;;;4967422;28;20055;-75
2023/01/28 01:38:54;;;;;;;16.98;6.88;;;;;;;;;;4965732;28;20506;-75
2023/01/28 01:41:24;;;;;;;6.07;4.70;;;;;;;;;;4969308;28;20085;-76
2023/01/28 01:43:52;;;;;;;5.95;4.47;;;;;;;;;;4965178;28;20467;-76
2023/01/28 01:46:24;;;;;;;5.20;3.97;;;;;;;;;;4960592;28;20121;-76
2023/01/28 01:48:52;;;;;;;8.90;4.70;;;;;;;;;;4966216;28;20481;-70
2023/01/28 01:51:21;;;;;;;6.38;3.83;;;;;;;;;;4968487;28;20453;-76
2023/01/28 01:53:52;;;;;;;6.80;3.70;;;;;;;;;;4968360;28;20061;-76
2023/01/28 01:56:22;;;;;;;5.88;4.03;;;;;;;;;;4959526;28;20047;-76
2023/01/28 01:58:50;;;;;;;6.70;4.63;;;;;;;;;;4966619;28;20062;-76
2023/01/28 02:01:21;;;;;;;5.30;4.65;;;;;;;;;;4962891;28;20053;-76
2023/01/28 02:03:53;;;;;;;14.05;5.70;;;;;;;;;;4971965;28;20043;-75
2023/01/28 02:06:21;;;;;;;5.78;4.70;;;;;;;;;;4965445;28;20066;-76
2023/01/28 02:08:48;;;;;;;5.75;4.65;;;;;;;;;;4968866;28;20061;-75
2023/01/28 02:11:17;;;;;;;8.27;5.38;;;;;;;;;;4965274;28;20047;-76
2023/01/28 02:13:46;;;;;;;9.52;5.57;;;;;;;;;;4966188;28;20051;-75
2023/01/28 02:16:13;;;;;;;5.80;4.45;;;;;;;;;;4964350;28;20043;-76
2023/01/28 02:18:40;;;;;;;6.43;4.32;;;;;;;;;;4970536;28;20073;-75
2023/01/28 02:21:31;;;;;;;6.22;4.30;;;;;;;;;;4961866;28;20055;-76
2023/01/28 02:24:20;;;;;;;8.40;4.10;;;;;;;;;;5145760;27;20317;-74
2023/01/28 02:27:01;;;;;;;4.50;3.67;;;;;;;;;;5128149;27;20154;-75
2023/01/28 02:29:33;;;;;;;5.38;3.90;;;;;;;;;;5104983;28;20429;-74
2023/01/28 02:32:04;;;;;;;4.15;3.65;;;;;;;;;;5127567;27;20040;-75
2023/01/28 02:34:35;;;;;;;5.40;3.95;;;;;;;;;;5127587;28;20048;-75
2023/01/28 02:37:05;;;;;;;5.38;3.65;;;;;;;;;;5126398;27;20047;-75
2023/01/28 02:39:36;;;;;;;6.47;3.80;;;;;;;;;;5109787;28;20157;-75
2023/01/28 02:42:04;;;;;;;5.95;4.03;;;;;;;;;;5110788;27;20043;-75
2023/01/28 02:44:33;;;;;;;5.10;3.60;;;;;;;;;;5126802;27;20455;-75
2023/01/28 02:49:49;;;;;;;6.68;3.85;;;;;;;;;;5123709;27;20396;-75
2023/01/28 02:53:39;;;;;;;6.13;4.13;;;;;;;;;;5109328;28;20066;-74
2023/01/28 02:55:09;;;;;;;4.13;3.30;;;;;;;;;;5108553;28;20070;-75
2023/01/28 02:57:39;;;;;;;6.28;3.60;;;;;;;;;;5109145;28;20880;-75
2023/01/28 03:00:11;;;;;;;4.90;3.20;;;;;;;;;;5108454;28;20079;-75
2023/01/28 03:02:43;;;;;;;8.23;3.50;;;;;;;;;;5108130;28;20466;-75
2023/01/28 03:05:13;;;;;;;4.43;3.40;;;;;;;;;;5120885;27;20051;-74
2023/01/28 03:07:40;;;;;;;4.63;3.60;;;;;;;;;;5120782;28;20054;-74
2023/01/28 03:10:09;;;;;;;8.15;3.58;;;;;;;;;;5124756;27;20054;-74
2023/01/28 03:37:38;;;;;;;5.60;4.28;;;;;;;;;;5107978;28;20478;-77
2023/01/28 03:40:07;;;;;;;7.22;4.47;;;;;;;;;;5112600;27;20043;-76
2023/01/28 03:42:35;;;;;;;8.60;4.50;;;;;;;;;;5104315;28;20047;-76
2023/01/28 03:45:04;;;;;;;10.50;5.93;;;;;;;;;;5112663;28;20078;-77
2023/01/28 03:47:33;;;;;;;6.68;4.70;;;;;;;;;;5110208;28;20062;-77
2023/01/28 03:50:01;;;;;;;6.28;4.75;;;;;;;;;;5108222;28;20043;-77
2023/01/28 03:52:30;;;;;;;6.47;4.40;;;;;;;;;;5111604;28;20039;-77
2023/01/28 03:54:58;;;;;;;7.93;5.03;;;;;;;;;;5109400;28;20063;-76
2023/01/28 03:57:26;;;;;;;5.93;4.45;;;;;;;;;;5108152;27;20044;-76
2023/01/28 03:59:54;;;;;;;6.22;4.43;;;;;;;;;;5107011;28;20051;-77
2023/01/28 04:02:24;;;;;;;5.88;4.40;;;;;;;;;;5108163;27;20053;-77
2023/01/28 04:04:52;;;;;;;6.75;4.90;;;;;;;;;;5108276;28;20090;-77
2023/01/28 04:07:19;;;;;;;9.77;4.90;;;;;;;;;;5107576;28;20486;-77
2023/01/28 04:09:47;;;;;;;6.95;4.82;;;;;;;;;;5111243;28;20044;-77
2023/01/28 04:12:14;;;;;;;7.13;5.10;;;;;;;;;;5103853;28;20066;-76
2023/01/28 04:14:41;;;;;;;7.30;4.68;;;;;;;;;;5110490;28;20044;-75
2023/01/28 04:17:09;;;;;;;5.95;4.82;;;;;;;;;;5101338;28;20056;-77
2023/01/28 04:19:37;;;;;;;6.47;4.85;;;;;;;;;;5107835;28;20055;-77
2023/01/28 04:22:07;;;;;;;6.45;4.70;;;;;;;;;;5108206;28;20051;-77
2023/01/28 04:24:34;;;;;;;7.38;5.25;;;;;;;;;;5111131;28;20043;-77
2023/01/28 04:27:01;;;;;;;5.63;4.50;;;;;;;;;;5110965;28;20040;-77
2023/01/28 04:29:29;;;;;;;5.28;4.45;;;;;;;;;;5110705;28;20503;-75
2023/01/28 04:31:57;;;;;;;5.63;4.32;;;;;;;;;;5108579;27;20040;-77
2023/01/28 04:34:24;;;;;;;6.25;4.60;;;;;;;;;;5109274;28;20379;-77
2023/01/28 04:36:51;;;;;;;6.53;4.40;;;;;;;;;;5104637;28;20058;-75
2023/01/28 04:39:20;;;;;;;5.93;4.78;;;;;;;;;;5112157;27;20055;-77
2023/01/28 04:41:47;;;;;;;5.55;4.60;;;;;;;;;;5109352;27;20047;-77
2023/01/28 04:44:16;;;;;;;7.13;4.38;;;;;;;;;;5110218;28;20513;-76
2023/01/28 04:46:43;;;;;;;7.45;4.85;;;;;;;;;;5102817;28;20055;-77
2023/01/28 04:49:10;;;;;;;5.10;4.22;;;;;;;;;;5107256;27;20073;-77
2023/01/28 04:51:37;;;;;;;5.32;4.32;;;;;;;;;;5111585;27;20058;-77
2023/01/28 04:54:05;;;;;;;6.15;4.18;;;;;;;;;;5107587;27;20059;-77
2023/01/28 04:56:33;;;;;;;7.00;4.43;;;;;;;;;;5109046;28;20048;-78
2023/01/28 04:59:01;;;;;;;6.53;4.53;;;;;;;;;;5107387;28;20051;-77
2023/01/28 05:01:28;;;;;;;5.85;4.43;;;;;;;;;;5108495;28;20048;-77
2023/01/28 05:03:55;;;;;;;6.78;4.45;;;;;;;;;;5106595;28;20051;-77
2023/01/28 05:06:23;;;;;;;6.80;4.40;;;;;;;;;;5104889;28;20047;-75
2023/01/28 05:08:50;;;;;;;5.82;4.45;;;;;;;;;;5110493;28;20729;-77
2023/01/28 05:11:17;;;;;;;6.90;5.05;;;;;;;;;;5104741;28;20050;-76
2023/01/28 05:13:46;;;;;;;5.80;5.00;;;;;;;;;;5106263;28;20044;-77
2023/01/28 05:16:13;;;;;;;8.50;5.50;;;;;;;;;;5109524;28;20048;-77
2023/01/28 05:18:40;;;;;;;9.18;5.50;;;;;;;;;;5108329;28;20391;-76
2023/01/28 05:21:07;;;;;;;6.65;5.15;;;;;;;;;;5109561;28;20046;-77
2023/01/28 05:23:35;;;;;;;6.68;5.40;;;;;;;;;;5105426;28;20047;-77
2023/01/28 05:26:02;;;;;;;8.05;5.22;;;;;;;;;;5108449;28;20056;-77
2023/01/28 05:28:29;;;;;;;7.60;5.75;;;;;;;;;;5110871;28;20091;-77
2023/01/28 05:30:58;;;;;;;7.68;5.47;;;;;;;;;;5104957;27;20051;-77
2023/01/28 05:33:25;;;;;;;6.45;5.18;;;;;;;;;;5107355;28;20043;-77
2023/01/28 05:35:52;;;;;;;7.43;5.72;;;;;;;;;;5110210;28;20055;-77
2023/01/28 05:38:20;;;;;;;6.32;4.85;;;;;;;;;;5106683;27;20456;-76
2023/01/28 05:40:47;;;;;;;7.43;5.45;;;;;;;;;;5109178;28;20055;-77
2023/01/28 05:43:15;;;;;;;9.38;5.57;;;;;;;;;;5108584;28;20056;-76
2023/01/28 05:45:42;;;;;;;7.07;5.65;;;;;;;;;;5107239;28;20525;-77
2023/01/28 05:48:10;;;;;;;6.63;5.57;;;;;;;;;;5103732;28;20059;-77
2023/01/28 05:50:38;;;;;;;7.95;5.75;;;;;;;;;;5108722;28;20043;-76
2023/01/28 05:53:06;;;;;;;9.48;5.68;;;;;;;;;;5109639;27;20043;-74
2023/01/28 05:55:33;;;;;;;9.05;6.03;;;;;;;;;;5106109;28;20050;-77
2023/01/28 05:58:00;;;;;;;7.53;5.50;;;;;;;;;;5109444;28;20056;-77
2023/01/28 06:00:28;;;;;;;8.75;6.28;;;;;;;;;;5107064;28;20040;-76
2023/01/28 06:02:55;;;;;;;10.88;6.25;;;;;;;;;;5107978;28;20051;-75
2023/01/28 06:05:24;;;;;;;9.27;5.97;;;;;;;;;;5106121;28;20066;-75
2023/01/28 06:07:51;;;;;;;7.82;5.70;;;;;;;;;;5109935;28;20055;-77
2023/01/28 06:10:18;;;;;;;7.93;6.00;;;;;;;;;;5107936;28;20051;-77
2023/01/28 06:12:46;;;;;;;6.90;5.60;;;;;;;;;;5105136;28;21148;-77
2023/01/28 06:15:13;;;;;;;7.00;5.40;;;;;;;;;;5108593;28;20055;-76
2023/01/28 06:17:40;;;;;;;6.90;5.57;;;;;;;;;;5107495;28;20059;-77
2023/01/28 06:20:08;;;;;;;8.82;6.32;;;;;;;;;;5105865;28;20398;-77
2023/01/28 06:22:37;;;;;;;11.60;5.78;;;;;;;;;;5107209;28;20063;-76
2023/01/28 06:25:04;;;;;;;7.55;5.80;;;;;;;;;;5067183;28;20078;-77
2023/01/28 06:27:32;;;;;;;9.63;6.15;;;;;;;;;;5065438;28;20042;-75
2023/01/28 06:29:59;;;;;;;10.40;6.13;;;;;;;;;;5065601;28;20048;-77
2023/01/28 06:32:26;;;;;;;8.05;6.15;;;;;;;;;;5064517;28;20052;-77
2023/01/28 06:34:54;;;;;;;10.07;6.53;;;;;;;;;;5064509;28;20087;-74
2023/01/28 06:37:21;;;;;;;9.20;6.57;;;;;;;;;;5068075;28;20052;-75
2023/01/28 06:39:50;;;;;;;8.02;5.90;;;;;;;;;;5070506;28;20051;-75
2023/01/28 06:42:17;;;;;;;10.50;6.43;;;;;;;;;;5063967;28;20052;-75
2023/01/28 06:44:44;;;;;;;8.60;6.20;;;;;;;;;;5066335;28;20049;-77
2023/01/28 06:47:13;;;;;;;13.18;6.80;;;;;;;;;;5066073;28;20048;-77
2023/01/28 06:49:41;;;;;;;10.65;7.03;;;;;;;;;;5063405;28;20140;-77
2023/01/28 06:52:08;;;;;;;11.05;7.78;;;;;;;;;;5067345;28;20056;-76
2023/01/28 06:54:35;;;;;;;11.68;7.40;;;;;;;;;;5069109;28;20116;-76
2023/01/28 06:57:04;;;;;;;10.75;7.57;;;;;;;;;;5062934;28;20049;-77
2023/01/28 06:59:31;;;;;;;10.38;7.43;;;;;;;;;;5063418;28;20495;-77
2023/01/28 07:01:58;;;;;;;11.90;8.00;;;;;;;;;;5063420;28;20056;-77
2023/01/28 07:04:25;;;;;;;11.07;7.78;;;;;;;;;;5062240;28;20044;-77
2023/01/28 07:06:52;;;;;;;11.18;7.25;;;;;;;;;;5065546;28;20048;-77
2023/01/28 07:09:20;;;;;;;10.98;7.50;;;;;;;;;;5064253;28;20044;-74
2023/01/28 07:11:47;;;;;;;11.60;8.18;;;;;;;;;;5070902;28;20053;-77
2023/01/28 07:14:15;;;;;;;11.48;7.80;;;;;;;;;;5069394;28;20048;-73
2023/01/28 07:16:43;;;;;;;11.95;7.63;;;;;;;;;;5070396;28;20452;-76
2023/01/28 07:19:10;;;;;;;11.63;7.80;;;;;;;;;;5072776;28;20052;-72
2023/01/28 07:21:37;;;;;;;13.73;7.80;;;;;;;;;;5066662;28;20131;-75
2023/01/28 07:24:05;;;;;;;10.70;8.13;;;;;;;;;;5091992;28;20047;-76
2023/01/28 07:26:32;;;;;;;11.38;7.68;;;;;;;;;;5110817;27;20089;-77
2023/01/28 07:29:00;;;;;;;11.77;7.75;;;;;;;;;;5102434;28;20048;-74
2023/01/28 07:31:28;;;;;;;11.43;7.63;;;;;;;;;;5108786;28;20048;-75
2023/01/28 07:33:55;;;;;;;11.82;8.18;;;;;;;;;;5102763;28;20059;-77
2023/01/28 07:36:23;;;;;;;10.15;7.45;;;;;;;;;;5107317;28;20052;-76
2023/01/28 07:38:50;;;;;;;12.20;7.55;;;;;;;;;;5107636;28;20078;-77
2023/01/28 07:41:17;;;;;;;10.30;7.22;;;;;;;;;;5112411;28;20043;-75
2023/01/28 07:43:44;;;;;;;11.02;7.43;;;;;;;;;;5106103;28;20058;-75
2023/01/28 07:46:12;;;;;;;10.85;7.68;;;;;;;;;;5105446;28;20507;-77
2023/01/28 07:48:40;;;;;;;9.30;6.90;;;;;;;;;;5097113;28;20067;-75
2023/01/28 07:51:07;;;;;;;11.88;7.80;;;;;;;;;;5104111;28;20040;-76
2023/01/28 07:53:35;;;;;;;10.52;7.53;;;;;;;;;;5105999;28;20059;-77
2023/01/28 07:56:03;;;;;;;12.07;7.88;;;;;;;;;;5108244;28;20146;-77
2023/01/28 07:58:31;;;;;;;12.43;8.13;;;;;;;;;;5109241;28;20119;-76
2023/01/28 08:00:58;;;;;;;11.70;7.45;;;;;;;;;;5107636;28;20502;-77
2023/01/28 08:03:26;;;;;;;17.65;7.63;;;;;;;;;;5109109;28;20607;-77
2023/01/28 08:05:55;;;;;;;11.85;8.55;;;;;;;;;;5105656;28;20047;-74
2023/01/28 08:08:23;;;;;;;13.77;8.13;;;;;;;;;;5107513;28;20043;-75
2023/01/28 08:10:50;;;;;;;11.27;7.55;;;;;;;;;;5103215;28;20410;-77
2023/01/28 08:13:18;;;;;;;11.20;7.82;;;;;;;;;;5109736;28;20047;-76
2023/01/28 08:15:46;;;;;;;12.40;8.02;;;;;;;;;;5106269;28;20532;-76
2023/01/28 08:18:14;;;;;;;11.30;7.60;;;;;;;;;;5101310;28;20469;-77
2023/01/28 08:20:42;;;;;;;10.38;7.72;;;;;;;;;;5103863;28;20520;-76
2023/01/28 08:23:12;;;;;;;12.15;7.70;;;;;;;;;;5108409;28;20706;-77
2023/01/28 08:25:40;;;;;;;12.93;8.25;;;;;;;;;;5113839;27;20050;-77
2023/01/28 08:28:07;;;;;;;13.45;8.25;;;;;;;;;;5109315;28;20505;-73
2023/01/28 08:30:36;;;;;;;12.25;7.82;;;;;;;;;;5106940;28;20055;-77
2023/01/28 08:33:04;;;;;;;11.90;8.48;;;;;;;;;;5109562;28;20093;-77
2023/01/28 08:35:31;;;;;;;10.93;7.65;;;;;;;;;;5106020;28;20047;-77
2023/01/28 08:37:59;;;;;;;11.38;7.95;;;;;;;;;;5104829;28;20054;-74
2023/01/28 08:40:28;;;;;;;12.38;8.05;;;;;;;;;;5109580;28;20410;-76
2023/01/28 08:42:56;;;;;;;17.73;8.43;;;;;;;;;;5109196;28;20063;-77
2023/01/28 08:45:24;;;;;;;14.68;8.55;;;;;;;;;;5109528;28;20047;-77
2023/01/28 08:47:52;;;;;;;12.02;8.27;;;;;;;;;;5105229;28;20493;-77
2023/01/28 08:50:20;;;;;;;12.85;8.25;;;;;;;;;;5105632;28;20048;-77
2023/01/28 08:52:48;;;;;;;12.88;8.13;;;;;;;;;;5109767;28;20066;-77
2023/01/28 08:55:17;;;;;;;10.27;7.63;;;;;;;;;;5111333;28;20111;-77
2023/01/28 08:57:46;;;;;;;15.57;8.20;;;;;;;;;;5107490;28;20055;-75
2023/01/28 09:00:14;;;;;;;12.13;8.43;;;;;;;;;;5110748;28;20056;-77
2023/01/28 09:02:41;;;;;;;12.48;8.07;;;;;;;;;;5108875;28;20501;-77
2023/01/28 09:05:09;;;;;;;10.95;7.40;;;;;;;;;;5108111;28;20051;-76
2023/01/28 09:07:37;;;;;;;10.23;7.53;;;;;;;;;;5111052;28;20135;-77
2023/01/28 09:10:05;;;;;;;10.80;7.13;;;;;;;;;;5110414;28;20055;-76
2023/01/28 09:12:33;;;;;;;11.27;7.35;;;;;;;;;;5108851;28;20533;-77
2023/01/28 09:15:01;;;;;;;11.10;8.10;;;;;;;;;;5108238;28;20043;-77
2023/01/28 09:17:29;;;;;;;10.07;7.85;;;;;;;;;;5109155;28;20063;-76
2023/01/28 09:19:56;;;;;;;11.00;7.65;;;;;;;;;;5110104;28;20469;-77
2023/01/28 09:22:23;;;;;;;11.98;7.93;;;;;;;;;;5110294;28;20050;-77
2023/01/28 09:24:50;;;;;;;11.57;7.82;;;;;;;;;;5108775;27;20066;-77
2023/01/28 09:27:17;;;;;;;11.65;7.88;;;;;;;;;;5110520;28;20046;-77
2023/01/28 09:29:45;;;;;;;12.38;8.27;;;;;;;;;;5110237;28;20047;-77
2023/01/28 09:32:13;;;;;;;13.30;7.72;;;;;;;;;;5110249;28;20494;-77
2023/01/28 09:34:40;;;;;;;11.10;7.80;;;;;;;;;;5109045;28;20054;-77
2023/01/28 09:37:08;;;;;;;10.98;7.53;;;;;;;;;;5107783;28;20065;-77
2023/01/28 09:39:35;;;;;;;11.02;7.10;;;;;;;;;;5107832;28;20043;-77
2023/01/28 09:42:10;;;;;;;11.02;7.25;;;;;;;;;;5107387;28;20501;-77
2023/01/28 09:44:42;;;;;;;10.05;6.70;;;;;;;;;;5101102;28;20512;-77
2023/01/28 09:47:13;;;;;;;12.35;7.32;;;;;;;;;;5107634;28;20221;-77
2023/01/28 09:49:44;;;;;;;17.48;7.75;;;;;;;;;;5106183;28;20517;-76
2023/01/28 09:52:13;;;;;;;10.68;6.80;;;;;;;;;;5099210;28;20044;-77
2023/01/28 09:54:42;;;;;;;11.73;7.55;;;;;;;;;;5100129;28;20040;-77
2023/01/28 09:57:14;;;;;;;12.15;6.95;;;;;;;;;;5105007;28;20161;-77
2023/01/28 09:59:41;;;;;;;9.65;6.72;;;;;;;;;;5100843;28;20071;-75
2023/01/28 10:02:26;;;;;;;8.63;6.80;;;;;;;;;;5103082;28;20055;-75
2023/01/28 10:04:59;;;;;;;12.00;6.50;;;;;;;;;;5098719;27;20384;-71
2023/01/28 10:07:35;;;;;;;9.88;6.50;;;;;;;;;;5101972;28;20060;-76
2023/01/28 10:10:03;;;;;;;9.77;6.93;;;;;;;;;;5102173;28;20051;-77
2023/01/28 10:12:36;;;;;;;9.00;6.22;;;;;;;;;;5101747;28;20047;-76
2023/01/28 10:15:26;;;;;;;9.55;6.18;;;;;;;;;;5108258;28;20051;-77
2023/01/28 10:17:55;;;;;;;8.73;6.07;;;;;;;;;;5104884;28;20044;-77
2023/01/28 10:20:27;;;;;;;8.73;6.78;;;;;;;;;;5107022;28;20048;-73
2023/01/28 10:22:56;;;;;;;8.67;6.27;;;;;;;;;;5106118;28;20059;-76
2023/01/28 10:25:25;;;;;;;9.60;6.70;;;;;;;;;;5106170;28;20305;-76
2023/01/28 10:27:53;;;;;;;8.57;6.00;;;;;;;;;;5106304;28;20054;-71
2023/01/28 10:30:22;;;;;;;9.50;6.65;;;;;;;;;;5108078;28;20048;-76
2023/01/28 10:32:52;;;;;;;11.57;5.97;;;;;;;;;;5107434;28;20051;-77
2023/01/28 10:35:19;;;;;;;11.48;6.68;;;;;;;;;;5106864;28;20047;-76
2023/01/28 10:37:48;;;;;;;13.13;5.47;;;;;;;;;;5109142;28;20040;-77
2023/01/28 10:40:16;;;;;;;9.25;5.50;;;;;;;;;;5106081;28;20051;-76
2023/01/28 10:42:44;;;;;;;10.68;5.38;;;;;;;;;;5103914;28;20478;-77
2023/01/28 10:45:17;;;;;;;9.05;5.20;;;;;;;;;;5109594;28;20048;-77
2023/01/28 10:47:46;;;;;;;7.82;5.05;;;;;;;;;;5114005;28;20413;-74
2023/01/28 10:50:16;;;;;;;8.18;4.57;;;;;;;;;;5111578;28;20039;-76
2023/01/28 10:52:54;;;;;;;8.35;5.05;;;;;;;;;;5112493;28;20040;-76
2023/01/28 10:55:22;;;;;;;6.22;4.75;;;;;;;;;;5111912;28;20051;-75
2023/01/28 10:57:49;;;;;;;7.47;4.50;;;;;;;;;;5113382;28;20040;-76
2023/01/28 11:00:23;;;;;;;8.07;4.70;;;;;;;;;;5108950;28;20128;-76
2023/01/28 11:02:50;;;;;;;8.00;4.57;;;;;;;;;;5111111;28;20054;-76
2023/01/28 11:05:19;;;;;;;7.72;4.47;;;;;;;;;;5110836;28;20054;-76
2023/01/28 11:07:48;;;;;;;7.00;4.65;;;;;;;;;;5111790;28;20052;-76
2023/01/28 11:10:31;;;;;;;9.68;4.53;;;;;;;;;;5112923;27;20051;-76
2023/01/28 11:12:58;;;;;;;8.20;4.90;;;;;;;;;;5099898;28;20081;-76
2023/01/28 11:15:26;;;;;;;8.98;4.65;;;;;;;;;;5113005;28;20055;-76
2023/01/28 11:17:56;;;;;;;8.02;4.90;;;;;;;;;;5112087;28;20056;-76
2023/01/28 11:20:25;;;;;;;9.25;4.82;;;;;;;;;;5112416;28;20051;-76
2023/01/28 11:22:53;;;;;;;6.75;4.82;;;;;;;;;;5112068;28;20054;-76
2023/01/28 11:25:24;;;;;;;6.57;4.88;;;;;;;;;;5111305;28;20050;-76
2023/01/28 11:27:54;;;;;;;15.82;5.63;;;;;;;;;;5110714;28;20405;-76
2023/01/28 11:30:22;;;;;;;7.68;4.88;;;;;;;;;;5113103;27;20052;-76
2023/01/28 11:32:55;;;;;;;7.50;4.47;;;;;;;;;;5108160;28;20519;-76
2023/01/28 11:35:27;;;;;;;9.97;4.30;;;;;;;;;;5111298;28;20044;-75
2023/01/28 11:37:55;;;;;;;6.15;4.13;;;;;;;;;;5108699;28;20058;-76
2023/01/28 11:40:23;;;;;;;7.15;4.03;;;;;;;;;;5111703;28;20439;-74
2023/01/28 11:42:51;;;;;;;6.20;3.63;;;;;;;;;;5112499;28;20054;-77
2023/01/28 11:45:20;;;;;;;6.90;4.20;;;;;;;;;;5107600;28;20058;-77
2023/01/28 11:47:58;;;;;;;5.00;3.65;;;;;;;;;;5105431;28;20040;-77
2023/01/28 11:50:31;;;;;;;7.90;3.60;;;;;;;;;;5106847;28;20381;-77
2023/01/28 11:53:08;;;;;;;6.10;3.35;;;;;;;;;;5110258;28;20056;-74
2023/01/28 11:55:42;;;;;;;7.03;3.40;;;;;;;;;;5106532;28;20067;-73
2023/01/28 11:58:09;;;;;;;;;;;;;;;;;;5111012;28;20066;-73
2023/01/28 12:00:41;;;;;;;4.97;3.20;;;;;;;;;;5107481;28;19920;-74
2023/01/28 12:03:27;;;;;;;6.22;3.80;;;;;;;;;;5108248;28;20074;-72
2023/01/28 12:05:56;;;;;;;8.60;3.63;;;;;;;;;;5105831;28;20052;-74
2023/01/28 12:08:25;;;;;;;8.05;3.67;;;;;;;;;;5111355;28;20502;-71
2023/01/28 12:11:06;;;;;;;6.00;3.13;;;;;;;;;;5105552;28;20055;-72
2023/01/28 12:13:42;;;;;;;7.72;3.40;;;;;;;;;;5104558;27;20051;-72
2023/01/28 12:16:21;;;;;;;7.78;3.60;;;;;;;;;;5105938;28;20047;-72
2023/01/28 12:19:03;;;;;;;4.47;2.65;;;;;;;;;;5110692;28;20055;-74
2023/01/28 12:21:37;;;;;;;6.28;2.95;;;;;;;;;;5107482;28;20039;-73
2023/01/28 12:24:09;;;;;;;8.52;2.80;;;;;;;;;;5110226;27;20072;-74
2023/01/28 12:26:42;;;;;;;5.85;2.25;;;;;;;;;;5107155;28;20054;-73
2023/01/28 12:29:19;;;;;;;5.38;2.40;;;;;;;;;;5105995;28;20048;-73
2023/01/28 12:31:56;;;;;;;8.30;2.03;;;;;;;;;;5111144;28;20660;-73
2023/01/28 12:34:33;;;;;;;3.90;1.70;;;;;;;;;;5108918;27;20048;-73
2023/01/28 12:37:04;;;;;;;5.90;2.00;;;;;;;;;;5107355;28;20043;-72
2023/01/28 12:39:36;;;;;;;9.20;2.10;;;;;;;;;;5110811;28;20494;-74
2023/01/28 12:42:08;;;;;;;7.22;2.22;;;;;;;;;;5106870;28;20062;-74
2023/01/28 12:44:36;;;;;;;5.43;2.20;;;;;;;;;;5107648;28;20051;-74
2023/01/28 12:47:07;;;;;;;10.00;2.63;;;;;;;;;;5107137;28;20556;-74
2023/01/28 12:49:36;;;;;;;7.05;2.00;;;;;;;;;;5105138;28;20043;-73
2023/01/28 12:52:05;;;;;;;5.43;1.83;;;;;;;;;;5108403;27;20043;-73
2023/01/28 12:54:36;;;;;;;10.45;1.50;;;;;;;;;;5099454;28;20050;-74
2023/01/28 12:57:03;;;;;;;5.45;1.50;;;;;;;;;;5099988;28;20062;-73
2023/01/28 12:59:33;;;;;;;5.15;1.40;;;;;;;;;;5104162;28;20040;-72
2023/01/28 13:02:04;;;;;;;6.45;1.83;;;;;;;;;;5108184;27;20113;-73
2023/01/28 13:04:36;;;;;;;8.73;1.50;;;;;;;;;;5106860;28;20737;-73
2023/01/28 13:07:07;;;;;;;4.70;1.55;;;;;;;;;;5099818;28;20077;-74
2023/01/28 13:09:36;;;;;;;6.10;1.65;;;;;;;;;;5110139;28;20096;-73
2023/01/28 13:12:04;;;;;;;5.53;1.50;;;;;;;;;;5107979;28;20047;-73
2023/01/28 13:14:34;;;;;;;4.85;1.13;;;;;;;;;;5108627;28;20047;-70
2023/01/28 13:17:11;;;;;;;4.85;1.27;;;;;;;;;;5104139;28;20054;-72
2023/01/28 13:19:40;;;;;;;4.25;0.95;;;;;;;;;;5100058;28;20505;-73
2023/01/28 13:22:11;;;;;;;5.10;1.10;;;;;;;;;;5105371;28;20479;-72
2023/01/28 13:24:39;;;;;;;6.47;1.10;;;;;;;;;;5108041;27;20051;-71
2023/01/28 13:27:15;;;;;;;3.40;1.23;;;;;;;;;;5108358;28;20044;-73
2023/01/28 13:29:48;;;;;;;3.00;1.38;;;;;;;;;;5106475;28;20379;-72
2023/01/28 13:32:29;;;;;;;5.60;1.40;;;;;;;;;;5108955;28;20046;-70
2023/01/28 13:35:02;;;;;;;7.47;1.45;;;;;;;;;;5105507;27;20056;-72
2023/01/28 13:37:31;;;;;;;5.65;1.60;;;;;;;;;;5106858;28;20047;-73
2023/01/28 13:40:02;;;;;;;4.97;1.88;;;;;;;;;;5110093;28;20055;-73
2023/01/28 13:42:30;;;;;;;6.85;1.63;;;;;;;;;;5106965;28;20059;-73
2023/01/28 13:44:57;;;;;;;7.05;1.90;;;;;;;;;;5123679;27;20502;-73
2023/01/28 13:47:26;;;;;;;4.57;2.10;;;;;;;;;;5110430;28;20051;-73
2023/01/28 13:49:57;;;;;;;10.00;2.00;;;;;;;;;;5104219;28;20047;-70
2023/01/28 13:52:28;;;;;;;5.78;1.85;;;;;;;;;;5106935;28;20513;-73
2023/01/28 13:54:58;;;;;;;4.55;1.65;;;;;;;;;;5108333;28;20055;-73
2023/01/28 13:57:43;;;;;;;9.90;2.30;;;;;;;;;;5108102;28;20040;-72
2023/01/28 14:00:14;;;;;;;7.75;1.90;;;;;;;;;;5068049;28;20055;-73
2023/01/28 14:03:00;;;;;;;6.80;2.10;;;;;;;;;;5107589;28;20055;-72
2023/01/28 14:05:51;;;;;;;4.65;2.00;;;;;;;;;;5103517;28;20052;-71
2023/01/28 14:08:28;;;;;;;4.68;1.65;;;;;;;;;;5106553;28;20051;-73
2023/01/28 14:11:04;;;;;;;8.38;1.90;;;;;;;;;;5109537;28;20077;-73
2023/01/28 14:13:40;;;;;;;8.95;2.30;;;;;;;;;;5101876;28;20044;-72
2023/01/28 14:16:14;;;;;;;8.15;2.63;;;;;;;;;;5110418;28;20062;-71
2023/01/28 14:18:41;;;;;;;;;;;;;;;;;;5098924;28;20509;-73
2023/01/28 14:21:11;;;;;;;4.68;1.52;;;;;;;;;;5101867;28;20006;-71
2023/01/28 14:23:44;;;;;;;6.82;1.55;;;;;;;;;;5107963;28;20043;-72
2023/01/28 14:26:16;;;;;;;8.73;1.95;;;;;;;;;;5106165;28;20054;-73
2023/01/28 14:28:48;;;;;;;7.00;2.17;;;;;;;;;;5108115;28;20043;-73
2023/01/28 14:31:17;;;;;;;4.78;1.65;;;;;;;;;;5106557;28;20052;-73
2023/01/28 14:33:44;;;;;;;5.00;1.63;;;;;;;;;;5108046;28;20052;-73
2023/01/28 14:36:12;;;;;;;7.30;1.85;;;;;;;;;;5102478;28;20040;-74
2023/01/28 14:38:42;;;;;;;6.72;1.55;;;;;;;;;;5105246;28;20044;-71
2023/01/28 14:41:09;;;;;;;4.97;2.10;;;;;;;;;;5103623;28;20059;-73
2023/01/28 14:43:38;;;;;;;8.38;2.10;;;;;;;;;;5107221;28;20514;-72
2023/01/28 14:46:13;;;;;;;10.63;1.83;;;;;;;;;;5106380;28;20054;-76
2023/01/28 14:48:43;;;;;;;5.93;1.45;;;;;;;;;;5102676;28;20055;-76
2023/01/28 14:51:16;;;;;;;5.90;1.73;;;;;;;;;;5105934;28;20048;-75
2023/01/28 14:53:58;;;;;;;4.78;1.40;;;;;;;;;;5109106;28;20052;-71
2023/01/28 14:56:32;;;;;;;6.45;1.63;;;;;;;;;;5107737;28;20047;-75
2023/01/28 14:59:01;;;;;;;5.82;1.58;;;;;;;;;;5109604;28;20059;-76
2023/01/28 15:01:29;;;;;;;11.13;2.10;;;;;;;;;;5106332;28;20510;-75
2023/01/28 15:03:56;;;;;;;5.90;1.77;;;;;;;;;;5105667;28;20100;-74
2023/01/28 15:06:25;;;;;;;9.35;2.10;;;;;;;;;;5105455;28;20040;-74
2023/01/28 15:08:54;;;;;;;6.78;1.75;;;;;;;;;;5106057;28;20047;-76
2023/01/28 15:11:23;;;;;;;4.80;1.98;;;;;;;;;;5109528;28;20035;-75
2023/01/28 15:13:51;;;;;;;10.95;2.10;;;;;;;;;;5105364;28;20055;-76
2023/01/28 15:16:21;;;;;;;7.07;2.15;;;;;;;;;;5105333;28;20036;-74
2023/01/28 15:18:49;;;;;;;4.75;1.60;;;;;;;;;;5107694;28;20513;-74
2023/01/28 15:21:20;;;;;;;8.35;1.63;;;;;;;;;;5108038;28;20152;-75